createdAt,value
2022-09-28T00:01:08.279Z,9.09
2022-09-28T00:03:35.675Z,9.10
2022-09-28T00:06:04.715Z,9.13
2022-09-28T00:08:31.640Z,9.09
2022-09-28T00:10:58.511Z,9.12
2022-09-28T00:13:25.319Z,9.12
2022-09-28T00:16:07.845Z,9.15
2022-09-28T00:18:36.299Z,9.22
2022-09-28T00:21:14.449Z,9.17
2022-09-28T00:24:00.624Z,9.20
2022-09-28T00:26:28.385Z,9.18
2022-09-28T00:28:58.626Z,9.18
2022-09-28T00:31:29.508Z,9.22
2022-09-28T00:34:00.230Z,9.23
2022-09-28T00:36:28.842Z,9.20
2022-09-28T00:38:56.890Z,9.16
2022-09-28T00:41:27.840Z,9.19
2022-09-28T00:44:26.472Z,9.20
2022-09-28T00:47:26.868Z,9.19
2022-09-28T00:50:20.690Z,9.19
2022-09-28T00:53:25.538Z,9.20
2022-09-28T00:55:54.767Z,9.21
2022-09-28T00:58:28.614Z,9.19
2022-09-28T01:00:57.951Z,9.20
2022-09-28T01:03:26.411Z,9.22
2022-09-28T01:05:53.564Z,9.17
2022-09-28T01:08:22.107Z,9.15
2022-09-28T01:10:49.350Z,9.22
2022-09-28T01:13:20.289Z,9.20
2022-09-28T01:15:52.973Z,9.20
2022-09-28T01:18:27.981Z,9.24
2022-09-28T01:21:02.311Z,9.20
2022-09-28T01:23:42.798Z,9.23
2022-09-28T01:26:27.640Z,9.23
2022-09-28T01:29:06.225Z,9.29
2022-09-28T01:31:36.378Z,9.25
2022-09-28T01:34:19.088Z,9.26
2022-09-28T01:36:53.625Z,9.23
2022-09-28T01:39:26.492Z,9.25
2022-09-28T01:41:59.798Z,9.25
2022-09-28T01:44:30.181Z,9.30
2022-09-28T01:47:03.469Z,9.33
2022-09-28T01:50:20.071Z,9.34
2022-09-28T01:52:53.603Z,9.34
2022-09-28T01:55:29.559Z,9.31
2022-09-28T01:58:14.124Z,9.35
2022-09-28T02:00:44.960Z,9.38
2022-09-28T02:03:23.529Z,9.39
2022-09-28T02:06:01.456Z,9.39
2022-09-28T02:08:43.251Z,9.40
2022-09-28T02:11:14.287Z,9.44
2022-09-28T02:13:46.674Z,9.46
2022-09-28T02:16:31.125Z,9.43
2022-09-28T02:18:58.324Z,9.42
2022-09-28T02:21:32.679Z,9.49
2022-09-28T02:24:20.668Z,9.49
2022-09-28T02:26:50.646Z,9.52
2022-09-28T02:29:17.486Z,9.54
2022-09-28T02:31:44.043Z,9.53
2022-09-28T02:34:11.020Z,9.53
2022-09-28T02:36:38.292Z,9.49
2022-09-28T02:39:04.972Z,9.46
2022-09-28T02:41:54.975Z,9.52
2022-09-28T02:44:57.615Z,9.54
2022-09-28T02:47:33.341Z,9.53
2022-09-28T02:50:25.140Z,9.55
2022-09-28T02:53:06.924Z,9.54
2022-09-28T02:56:03.673Z,9.58
2022-09-28T02:58:42.354Z,9.62
2022-09-28T03:01:30.057Z,9.59
2022-09-28T03:04:08.729Z,9.60
2022-09-28T03:06:41.972Z,9.57
2022-09-28T03:09:51.087Z,9.53
2022-09-28T03:12:20.647Z,9.52
2022-09-28T03:14:47.716Z,9.55
2022-09-28T03:17:14.273Z,9.54
2022-09-28T03:19:40.675Z,9.49
2022-09-28T03:22:08.182Z,9.58
2022-09-28T03:24:34.710Z,9.56
2022-09-28T03:27:02.103Z,9.57
2022-09-28T03:29:31.245Z,9.51
2022-09-28T03:32:01.498Z,9.56
2022-09-28T03:34:28.483Z,9.56
2022-09-28T03:36:55.460Z,9.56
2022-09-28T03:39:22.106Z,9.54
2022-09-28T03:41:48.491Z,9.52
2022-09-28T03:44:17.327Z,9.53
2022-09-28T03:46:44.036Z,9.52
2022-09-28T03:49:10.904Z,9.55
2022-09-28T03:51:37.609Z,9.51
2022-09-28T03:54:04.328Z,9.52
2022-09-28T03:56:31.012Z,9.48
2022-09-28T03:58:57.361Z,9.46
2022-09-28T04:01:25.193Z,9.51
2022-09-28T04:03:56.087Z,9.52
2022-09-28T04:06:24.518Z,9.48
2022-09-28T04:08:51.807Z,9.50
2022-09-28T04:11:18.486Z,9.46
2022-09-28T04:13:49.477Z,9.46
2022-09-28T04:16:18.027Z,9.45
2022-09-28T04:18:53.286Z,9.52
2022-09-28T04:21:37.575Z,9.51
2022-09-28T04:24:12.151Z,9.53
2022-09-28T04:26:39.054Z,9.54
2022-09-28T04:29:19.420Z,9.53
2022-09-28T04:31:55.125Z,9.54
2022-09-28T04:34:40.682Z,9.53
2022-09-28T04:37:09.872Z,9.56
2022-09-28T04:39:38.055Z,9.51
2022-09-28T04:42:05.837Z,9.49
2022-09-28T04:44:32.488Z,9.55
2022-09-28T04:47:05.411Z,9.49
2022-09-28T04:49:32.052Z,9.51
2022-09-28T04:52:12.549Z,9.53
2022-09-28T04:54:42.338Z,9.55
2022-09-28T04:57:08.983Z,9.51
2022-09-28T04:59:37.553Z,9.52
2022-09-28T05:02:05.197Z,9.50
2022-09-28T05:04:41.107Z,9.53
2022-09-28T05:07:31.092Z,9.53
2022-09-28T05:10:00.544Z,9.46
2022-09-28T05:12:27.200Z,9.46
2022-09-28T05:14:54.203Z,9.47
2022-09-28T05:17:20.682Z,9.43
2022-09-28T05:20:02.656Z,9.48
2022-09-28T05:22:29.477Z,9.42
2022-09-28T05:24:56.299Z,9.48
2022-09-28T05:27:23.898Z,9.53
2022-09-28T05:29:59.539Z,9.48
2022-09-28T05:32:59.716Z,9.45
2022-09-28T05:35:40.990Z,9.47
2022-09-28T05:38:07.911Z,9.49
2022-09-28T05:40:34.534Z,9.48
2022-09-28T05:43:02.059Z,9.51
2022-09-28T05:45:29.746Z,9.53
2022-09-28T05:47:56.624Z,9.51
2022-09-28T05:50:23.844Z,9.47
2022-09-28T05:53:00.893Z,9.54
2022-09-28T05:55:27.991Z,9.51
2022-09-28T05:57:58.384Z,9.50
2022-09-28T06:00:25.329Z,9.51
2022-09-28T06:03:08.987Z,9.54
2022-09-28T06:05:38.694Z,9.54
2022-09-28T06:08:07.009Z,9.59
2022-09-28T06:10:34.202Z,9.62
2022-09-28T06:13:01.677Z,9.53
2022-09-28T06:15:30.945Z,9.59
2022-09-28T06:18:03.449Z,9.57
2022-09-28T06:20:42.334Z,9.69
2022-09-28T06:23:13.751Z,9.62
2022-09-28T06:25:40.540Z,9.63
2022-09-28T06:28:10.462Z,9.54
2022-09-28T06:30:38.432Z,9.58
2022-09-28T06:33:12.643Z,9.61
2022-09-28T06:35:40.689Z,9.67
2022-09-28T06:38:10.514Z,9.73
2022-09-28T06:40:37.478Z,9.76
2022-09-28T06:43:10.046Z,9.86
2022-09-28T06:45:55.323Z,9.95
2022-09-28T06:48:25.452Z,10.01
2022-09-28T06:50:51.937Z,9.98
2022-09-28T06:53:32.413Z,9.94
2022-09-28T06:56:10.543Z,9.97
2022-09-28T06:58:37.121Z,10.01
2022-09-28T07:01:04.324Z,10.14
2022-09-28T07:03:40.634Z,10.18
2022-09-28T07:06:24.468Z,10.28
2022-09-28T07:09:31.536Z,10.30
2022-09-28T07:12:20.614Z,10.30
2022-09-28T07:14:56.137Z,10.33
2022-09-28T07:17:24.935Z,10.28
2022-09-28T07:19:52.957Z,10.45
2022-09-28T07:22:26.980Z,10.47
2022-09-28T07:25:01.549Z,10.67
2022-09-28T07:28:00.137Z,10.77
2022-09-28T07:30:35.947Z,10.71
2022-09-28T07:33:09.599Z,10.79
2022-09-28T07:35:57.803Z,10.96
2022-09-28T07:38:29.460Z,11.34
2022-09-28T07:41:12.306Z,11.23
2022-09-28T07:43:45.560Z,11.46
2022-09-28T07:46:12.381Z,11.19
2022-09-28T07:48:46.021Z,11.20
2022-09-28T07:51:34.553Z,11.29
2022-09-28T07:54:19.872Z,11.43
2022-09-28T07:57:08.505Z,11.37
2022-09-28T07:59:55.615Z,11.27
2022-09-28T08:02:40.525Z,11.23
2022-09-28T08:05:10.228Z,11.30
2022-09-28T08:07:38.194Z,11.56
2022-09-28T08:10:08.544Z,11.43
2022-09-28T08:12:59.184Z,11.39
2022-09-28T08:15:50.974Z,11.72
2022-09-28T08:18:36.811Z,11.76
2022-09-28T08:21:23.675Z,12.01
2022-09-28T08:23:51.639Z,12.04
2022-09-28T08:26:18.135Z,11.92
2022-09-28T08:28:46.688Z,11.87
2022-09-28T08:31:43.931Z,11.88
2022-09-28T08:34:22.629Z,12.08
2022-09-28T08:37:15.121Z,11.88
2022-09-28T08:39:50.697Z,11.88
2022-09-28T08:42:41.872Z,11.94
2022-09-28T08:45:33.599Z,12.02
2022-09-28T08:48:40.051Z,11.79
2022-09-28T08:51:33.780Z,11.71
2022-09-28T08:54:44.755Z,11.86
2022-09-28T08:57:36.739Z,12.02
2022-09-28T09:00:09.608Z,11.99
2022-09-28T09:02:39.917Z,11.96
2022-09-28T09:05:18.969Z,12.18
2022-09-28T09:08:12.763Z,11.76
2022-09-28T09:11:13.205Z,11.73
2022-09-28T09:13:59.216Z,11.57
2022-09-28T09:16:59.835Z,11.88
2022-09-28T09:20:05.520Z,12.12
2022-09-28T09:23:00.082Z,12.18
2022-09-28T09:25:38.612Z,12.09
2022-09-28T09:28:13.818Z,12.01
2022-09-28T09:30:59.696Z,11.99
2022-09-28T09:33:53.788Z,12.04
2022-09-28T09:36:39.032Z,11.99
2022-09-28T09:40:02.564Z,12.02
2022-09-28T09:43:14.157Z,11.81
2022-09-28T09:46:10.852Z,12.80
2022-09-28T09:49:29.976Z,12.96
2022-09-28T09:52:14.592Z,12.68
2022-09-28T09:55:30.124Z,12.59
2022-09-28T09:58:21.703Z,12.55
2022-09-28T10:00:58.603Z,12.61
2022-09-28T10:03:48.182Z,12.65
2022-09-28T10:06:25.093Z,13.60
2022-09-28T10:09:39.062Z,14.42
2022-09-28T10:12:39.090Z,14.10
2022-09-28T10:15:07.700Z,13.60
2022-09-28T10:17:46.621Z,13.17
2022-09-28T10:20:34.597Z,13.20
2022-09-28T10:23:31.106Z,13.31
2022-09-28T10:26:03.501Z,13.34
2022-09-28T10:28:40.536Z,13.35
2022-09-28T10:31:34.541Z,13.19
2022-09-28T10:34:01.911Z,12.99
2022-09-28T10:36:28.960Z,13.10
2022-09-28T10:38:57.800Z,13.16
2022-09-28T10:41:28.784Z,13.08
2022-09-28T10:44:08.702Z,13.68
2022-09-28T10:47:05.834Z,14.45
2022-09-28T10:49:46.839Z,14.43
2022-09-28T10:52:33.278Z,14.82
2022-09-28T10:55:01.049Z,14.96
2022-09-28T10:57:36.996Z,15.18
2022-09-28T11:00:31.602Z,15.13
2022-09-28T11:03:29.691Z,15.88
2022-09-28T11:06:03.794Z,15.84
2022-09-28T11:08:36.120Z,15.15
2022-09-28T11:11:14.791Z,14.79
2022-09-28T11:13:48.274Z,14.69
2022-09-28T11:16:29.584Z,14.92
2022-09-28T11:18:59.106Z,14.72
2022-09-28T11:21:28.380Z,14.53
2022-09-28T11:24:07.458Z,14.63
2022-09-28T11:26:44.004Z,14.79
2022-09-28T11:29:39.007Z,14.87
2022-09-28T11:32:18.418Z,14.88
2022-09-28T11:35:04.468Z,14.45
2022-09-28T11:37:47.219Z,14.37
2022-09-28T11:40:35.461Z,14.88
2022-09-28T11:43:29.428Z,15.59
2022-09-28T11:46:32.286Z,15.01
2022-09-28T11:49:41.639Z,15.62
2022-09-28T11:52:18.842Z,15.32
2022-09-28T11:54:59.201Z,15.36
2022-09-28T11:57:29.328Z,15.96
2022-09-28T12:00:04.210Z,16.07
2022-09-28T12:02:38.989Z,16.38
2022-09-28T12:05:25.134Z,15.34
2022-09-28T12:08:02.115Z,14.47
2022-09-28T12:11:09.970Z,14.65
2022-09-28T12:13:59.756Z,14.34
2022-09-28T12:19:36.315Z,14.54
2022-09-28T12:22:17.572Z,14.32
2022-09-28T12:24:47.490Z,14.43
2022-09-28T12:27:40.325Z,13.99
2022-09-28T12:30:16.797Z,14.38
2022-09-28T12:33:06.853Z,14.18
2022-09-28T12:35:56.390Z,14.47
2022-09-28T12:38:38.427Z,14.56
2022-09-28T12:41:28.611Z,14.51
2022-09-28T12:44:21.899Z,14.49
2022-09-28T12:47:28.909Z,14.60
2022-09-28T12:50:41.073Z,14.56
2022-09-28T12:53:41.740Z,14.53
2022-09-28T12:56:21.498Z,14.61
2022-09-28T12:59:05.212Z,14.73
2022-09-28T13:02:01.440Z,14.80
2022-09-28T13:04:52.961Z,14.63
2022-09-28T13:07:50.708Z,15.37
2022-09-28T13:10:32.555Z,16.16
2022-09-28T13:13:17.347Z,16.78
2022-09-28T13:15:56.530Z,17.32
2022-09-28T13:18:33.526Z,17.20
2022-09-28T13:21:11.143Z,17.25
2022-09-28T13:23:42.696Z,18.09
2022-09-28T13:26:24.684Z,18.20
2022-09-28T13:28:54.746Z,18.34
2022-09-28T13:31:30.889Z,18.55
2022-09-28T13:34:03.566Z,18.67
2022-09-28T13:36:32.955Z,17.80
2022-09-28T13:39:00.655Z,18.50
2022-09-28T13:41:40.842Z,17.85
2022-09-28T13:44:13.437Z,17.62
2022-09-28T13:46:45.914Z,17.76
2022-09-28T13:49:40.231Z,17.26
2022-09-28T13:52:14.926Z,16.83
2022-09-28T13:54:50.623Z,17.16
2022-09-28T13:57:25.197Z,18.42
2022-09-28T13:59:56.007Z,18.43
2022-09-28T14:02:36.665Z,17.75
2022-09-28T14:05:34.261Z,17.80
2022-09-28T14:08:11.370Z,17.47
2022-09-28T14:10:51.597Z,17.37
2022-09-28T14:13:43.362Z,17.43
2022-09-28T14:16:23.488Z,16.94
2022-09-28T14:18:58.371Z,16.83
2022-09-28T14:21:43.134Z,16.85
2022-09-28T14:24:32.837Z,16.68
2022-09-28T14:27:29.171Z,16.83
2022-09-28T14:30:28.210Z,16.54
2022-09-28T14:32:59.736Z,16.00
2022-09-28T14:35:33.622Z,17.14
2022-09-28T14:38:35.306Z,17.04
2022-09-28T14:41:12.847Z,16.59
2022-09-28T14:43:45.695Z,16.45
2022-09-28T14:46:13.001Z,16.69
2022-09-28T14:49:03.777Z,17.21
2022-09-28T14:51:30.219Z,17.01
2022-09-28T14:54:02.182Z,16.66
2022-09-28T14:56:33.030Z,16.44
2022-09-28T14:59:00.494Z,16.57
2022-09-28T15:01:27.681Z,16.20
2022-09-28T15:03:56.981Z,16.73
2022-09-28T15:06:24.432Z,16.51
2022-09-28T15:08:51.366Z,16.40
2022-09-28T15:11:26.236Z,16.25
2022-09-28T15:14:06.209Z,16.44
2022-09-28T15:16:33.299Z,16.35
2022-09-28T15:19:35.945Z,16.54
2022-09-28T15:22:02.524Z,16.32
2022-09-28T15:24:33.695Z,16.33
2022-09-28T15:27:02.015Z,16.39
2022-09-28T15:29:31.237Z,16.04
2022-09-28T15:31:58.897Z,15.98
2022-09-28T15:34:51.446Z,16.05
2022-09-28T15:37:22.741Z,15.92
2022-09-28T15:39:51.242Z,15.78
2022-09-28T15:42:18.604Z,15.69
2022-09-28T15:45:14.374Z,15.74
2022-09-28T15:47:43.475Z,15.65
2022-09-28T15:50:29.858Z,15.56
2022-09-28T15:53:05.665Z,15.69
2022-09-28T15:55:34.351Z,15.67
2022-09-28T15:58:22.248Z,15.54
2022-09-28T16:00:54.969Z,15.47
2022-09-28T16:03:28.031Z,15.46
2022-09-28T16:05:57.425Z,15.37
2022-09-28T16:08:42.207Z,15.65
2022-09-28T16:11:27.205Z,15.54
2022-09-28T16:14:08.876Z,15.49
2022-09-28T16:16:52.958Z,15.32
2022-09-28T16:19:29.412Z,15.26
2022-09-28T16:22:02.351Z,15.23
2022-09-28T16:24:33.277Z,15.22
2022-09-28T16:27:03.114Z,15.28
2022-09-28T16:29:41.419Z,15.19
2022-09-28T16:32:26.650Z,15.16
2022-09-28T16:35:19.590Z,15.17
2022-09-28T16:37:57.526Z,14.93
2022-09-28T16:40:24.539Z,14.93
2022-09-28T16:42:53.812Z,14.82
2022-09-28T16:45:23.143Z,14.70
2022-09-28T16:47:53.387Z,14.66
2022-09-28T16:50:21.227Z,14.67
2022-09-28T16:53:09.229Z,14.48
2022-09-28T16:55:40.955Z,14.44
2022-09-28T16:58:08.116Z,14.31
2022-09-28T17:00:35.138Z,14.12
2022-09-28T17:03:02.159Z,14.02
2022-09-28T17:05:29.388Z,13.90
2022-09-28T17:08:03.920Z,13.85
2022-09-28T17:10:50.070Z,13.67
2022-09-28T17:13:35.850Z,13.60
2022-09-28T17:16:43.575Z,13.37
2022-09-28T17:19:25.842Z,13.28
2022-09-28T17:21:52.737Z,13.25
2022-09-28T17:24:20.148Z,13.14
2022-09-28T17:26:48.950Z,12.99
2022-09-28T17:29:15.972Z,12.87
2022-09-28T17:31:43.720Z,12.77
2022-09-28T17:34:12.261Z,12.69
2022-09-28T17:36:41.254Z,12.66
2022-09-28T17:39:12.616Z,12.50
2022-09-28T17:41:39.792Z,12.36
2022-09-28T17:44:06.656Z,12.36
2022-09-28T17:46:36.625Z,12.31
2022-09-28T17:49:05.825Z,12.21
2022-09-28T17:51:37.353Z,12.15
2022-09-28T17:54:06.660Z,12.17
2022-09-28T17:56:34.305Z,11.89
2022-09-28T17:59:04.789Z,11.99
2022-09-28T18:01:34.172Z,12.08
2022-09-28T18:04:03.165Z,11.99
2022-09-28T18:06:30.049Z,12.00
2022-09-28T18:08:59.714Z,11.74
2022-09-28T18:11:26.282Z,11.69
2022-09-28T18:13:52.810Z,11.85
2022-09-28T18:16:19.491Z,11.92
2022-09-28T18:18:47.676Z,12.01
2022-09-28T18:21:14.799Z,11.96
2022-09-28T18:23:41.523Z,11.95
2022-09-28T18:26:13.393Z,11.85
2022-09-28T18:28:40.168Z,11.79
2022-09-28T18:31:11.777Z,11.80
2022-09-28T18:33:40.653Z,11.82
2022-09-28T18:36:07.688Z,11.79
2022-09-28T18:38:38.059Z,11.77
2022-09-28T18:41:15.357Z,11.77
2022-09-28T18:43:48.742Z,11.74
2022-09-28T18:46:15.982Z,11.58
2022-09-28T18:48:43.777Z,11.47
2022-09-28T18:51:13.257Z,11.48
2022-09-28T18:53:40.413Z,11.47
2022-09-28T18:56:18.347Z,11.31
2022-09-28T18:58:46.139Z,11.28
2022-09-28T19:01:31.383Z,11.17
2022-09-28T19:04:03.242Z,11.12
2022-09-28T19:06:31.376Z,11.21
2022-09-28T19:08:58.529Z,11.10
2022-09-28T19:11:25.610Z,10.92
2022-09-28T19:13:53.177Z,10.98
2022-09-28T19:16:30.179Z,10.82
2022-09-28T19:18:58.317Z,10.85
2022-09-28T19:21:25.109Z,10.70
2022-09-28T19:23:54.444Z,10.61
2022-09-28T19:26:23.706Z,10.58
2022-09-28T19:28:52.971Z,10.56
2022-09-28T19:31:19.988Z,10.56
2022-09-28T19:33:46.779Z,10.52
2022-09-28T19:36:24.453Z,10.43
2022-09-28T19:38:52.742Z,10.47
2022-09-28T19:41:44.290Z,10.35
2022-09-28T19:44:24.254Z,10.36
2022-09-28T19:46:55.190Z,10.28
2022-09-28T19:49:23.284Z,10.24
2022-09-28T19:52:11.504Z,10.36
2022-09-28T19:54:38.231Z,10.21
2022-09-28T19:57:07.567Z,10.23
2022-09-28T19:59:35.477Z,10.20
2022-09-28T20:02:03.067Z,10.19
2022-09-28T20:04:29.901Z,10.11
2022-09-28T20:06:56.482Z,10.21
2022-09-28T20:09:22.880Z,10.26
2022-09-28T20:11:51.648Z,10.21
2022-09-28T20:14:18.816Z,10.26
2022-09-28T20:16:48.090Z,10.15
2022-09-28T20:19:15.161Z,10.27
2022-09-28T20:21:41.568Z,10.25
2022-09-28T20:24:10.560Z,10.20
2022-09-28T20:26:37.743Z,10.22
2022-09-28T20:29:05.754Z,10.20
2022-09-28T20:31:32.501Z,10.23
2022-09-28T20:33:59.237Z,10.22
2022-09-28T20:36:25.912Z,10.17
2022-09-28T20:38:54.635Z,10.17
2022-09-28T20:41:23.297Z,10.24
2022-09-28T20:44:04.148Z,10.22
2022-09-28T20:46:31.850Z,10.23
2022-09-28T20:48:59.413Z,10.27
2022-09-28T20:51:25.850Z,10.24
2022-09-28T20:53:54.879Z,10.25
2022-09-28T20:56:24.179Z,10.25
2022-09-28T20:58:51.564Z,10.28
2022-09-28T21:01:26.769Z,10.28
2022-09-28T21:04:01.993Z,10.34
2022-09-28T21:06:31.456Z,10.29
2022-09-28T21:08:58.855Z,10.39
2022-09-28T21:11:27.559Z,10.41
2022-09-28T21:13:56.978Z,10.41
2022-09-28T21:16:24.476Z,10.38
2022-09-28T21:18:51.272Z,10.37
2022-09-28T21:21:20.042Z,10.42
2022-09-28T21:23:47.482Z,10.36
2022-09-28T21:26:18.749Z,10.40
2022-09-28T21:28:46.127Z,10.34
2022-09-28T21:31:14.089Z,10.39
2022-09-28T21:33:40.799Z,10.39
2022-09-28T21:36:08.216Z,10.38
2022-09-28T21:38:34.673Z,10.43
2022-09-28T21:41:01.348Z,10.47
2022-09-28T21:43:29.511Z,10.39
2022-09-28T21:45:58.006Z,10.37
2022-09-28T21:48:27.233Z,10.39
2022-09-28T21:50:58.757Z,10.36
2022-09-28T21:53:27.398Z,10.38
2022-09-28T21:55:53.841Z,10.33
2022-09-28T21:58:25.065Z,10.20
2022-09-28T22:01:05.774Z,10.24
2022-09-28T22:03:35.398Z,10.25
2022-09-28T22:06:03.804Z,10.24
2022-09-28T22:08:30.555Z,10.22
2022-09-28T22:11:03.593Z,10.26
2022-09-28T22:13:32.748Z,10.19
2022-09-28T22:15:59.407Z,10.14
2022-09-28T22:18:27.786Z,10.13
2022-09-28T22:21:02.343Z,10.10
2022-09-28T22:23:29.688Z,10.11
2022-09-28T22:26:20.079Z,10.15
2022-09-28T22:28:55.364Z,10.06
2022-09-28T22:31:25.276Z,10.11
2022-09-28T22:33:52.085Z,10.06
2022-09-28T22:36:19.861Z,10.13
2022-09-28T22:38:48.664Z,10.06
2022-09-28T22:41:18.049Z,10.12
2022-09-28T22:43:44.963Z,10.06
2022-09-28T22:46:16.801Z,10.01
2022-09-28T22:48:48.754Z,10.01
2022-09-28T22:51:16.351Z,10.02
2022-09-28T22:53:43.544Z,10.02
2022-09-28T22:56:15.970Z,9.99
2022-09-28T22:58:44.760Z,9.95
2022-09-28T23:01:14.359Z,9.95
2022-09-28T23:03:42.079Z,9.91
2022-09-28T23:06:09.763Z,9.82
2022-09-28T23:08:36.833Z,9.85
2022-09-28T23:11:06.123Z,9.84
2022-09-28T23:13:32.853Z,9.86
2022-09-28T23:16:02.162Z,9.73
2022-09-28T23:18:31.315Z,9.76
2022-09-28T23:21:01.463Z,9.82
2022-09-28T23:23:28.201Z,9.81
2022-09-28T23:25:55.435Z,9.79
2022-09-28T23:28:24.279Z,9.75
2022-09-28T23:30:51.902Z,9.70
2022-09-28T23:33:20.409Z,9.66
2022-09-28T23:35:47.349Z,9.61
2022-09-28T23:38:18.137Z,9.62
2022-09-28T23:40:48.086Z,9.62
2022-09-28T23:43:15.283Z,9.59
2022-09-28T23:45:45.644Z,9.60
2022-09-28T23:48:14.718Z,9.58
2022-09-28T23:50:43.346Z,9.56
2022-09-28T23:53:10.881Z,9.55
2022-09-28T23:55:38.118Z,9.57
2022-09-28T23:58:04.519Z,9.42
